sensor_id;sensor_type;location;lat;lon;timestamp;temperature;humidity
67777;DHT22;54576;52.020;5.536;2022-12-13T00:01:25;-4.00;99.90
67777;DHT22;54576;52.020;5.536;2022-12-13T00:03:54;-4.00;99.90
67777;DHT22;54576;52.020;5.536;2022-12-13T00:06:19;-4.10;99.90
67777;DHT22;54576;52.020;5.536;2022-12-13T00:08:45;-4.20;99.90
67777;DHT22;54576;52.020;5.536;2022-12-13T00:11:12;-4.10;99.90
67777;DHT22;54576;52.020;5.536;2022-12-13T00:13:41;-4.20;99.90
67777;DHT22;54576;52.020;5.536;2022-12-13T00:16:10;-4.10;99.90
67777;DHT22;54576;52.020;5.536;2022-12-13T00:18:36;-4.20;99.90
67777;DHT22;54576;52.020;5.536;2022-12-13T00:21:07;-4.20;99.90
67777;DHT22;54576;52.020;5.536;2022-12-13T00:23:34;-4.20;99.90
67777;DHT22;54576;52.020;5.536;2022-12-13T00:26:09;-4.20;99.90
67777;DHT22;54576;52.020;5.536;2022-12-13T00:28:37;-4.10;99.90
67777;DHT22;54576;52.020;5.536;2022-12-13T00:31:02;-4.20;99.90
67777;DHT22;54576;52.020;5.536;2022-12-13T00:33:29;-4.20;99.90
67777;DHT22;54576;52.020;5.536;2022-12-13T00:35:55;-4.30;99.90
67777;DHT22;54576;52.020;5.536;2022-12-13T00:38:21;-4.30;99.90
67777;DHT22;54576;52.020;5.536;2022-12-13T00:40:47;-4.30;99.90
67777;DHT22;54576;52.020;5.536;2022-12-13T00:43:13;-4.30;99.90
67777;DHT22;54576;52.020;5.536;2022-12-13T00:45:40;-4.40;99.90
67777;DHT22;54576;52.020;5.536;2022-12-13T00:48:06;-4.40;99.90
67777;DHT22;54576;52.020;5.536;2022-12-13T00:50:32;-4.40;99.90
67777;DHT22;54576;52.020;5.536;2022-12-13T00:52:58;-4.40;99.90
67777;DHT22;54576;52.020;5.536;2022-12-13T00:55:24;-4.40;99.90
67777;DHT22;54576;52.020;5.536;2022-12-13T00:57:50;-4.40;99.90
67777;DHT22;54576;52.020;5.536;2022-12-13T01:00:18;-4.40;99.90
67777;DHT22;54576;52.020;5.536;2022-12-13T01:02:44;-4.40;99.90
67777;DHT22;54576;52.020;5.536;2022-12-13T01:05:11;-4.40;99.90
67777;DHT22;54576;52.020;5.536;2022-12-13T01:07:37;-4.40;99.90
67777;DHT22;54576;52.020;5.536;2022-12-13T01:10:05;-4.40;99.90
67777;DHT22;54576;52.020;5.536;2022-12-13T01:12:32;-4.40;99.90
67777;DHT22;54576;52.020;5.536;2022-12-13T01:14:57;-4.40;99.90
67777;DHT22;54576;52.020;5.536;2022-12-13T01:17:23;-4.40;99.90
67777;DHT22;54576;52.020;5.536;2022-12-13T01:19:49;-4.40;99.90
67777;DHT22;54576;52.020;5.536;2022-12-13T01:22:15;-4.40;99.90
67777;DHT22;54576;52.020;5.536;2022-12-13T01:24:40;-4.50;99.90
67777;DHT22;54576;52.020;5.536;2022-12-13T01:27:07;-4.50;99.90
67777;DHT22;54576;52.020;5.536;2022-12-13T01:29:33;-4.50;99.90
67777;DHT22;54576;52.020;5.536;2022-12-13T01:31:58;-4.50;99.90
67777;DHT22;54576;52.020;5.536;2022-12-13T01:34:25;-4.50;99.90
67777;DHT22;54576;52.020;5.536;2022-12-13T01:36:52;-4.50;99.90
67777;DHT22;54576;52.020;5.536;2022-12-13T01:39:19;-4.50;99.90
67777;DHT22;54576;52.020;5.536;2022-12-13T01:41:47;-4.50;99.90
67777;DHT22;54576;52.020;5.536;2022-12-13T01:47:19;-4.40;99.90
67777;DHT22;54576;52.020;5.536;2022-12-13T01:49:47;-4.40;99.90
67777;DHT22;54576;52.020;5.536;2022-12-13T01:52:15;-4.40;99.90
67777;DHT22;54576;52.020;5.536;2022-12-13T01:54:45;-4.40;99.90
67777;DHT22;54576;52.020;5.536;2022-12-13T01:57:14;-4.50;99.90
67777;DHT22;54576;52.020;5.536;2022-12-13T01:59:41;-4.50;99.90
67777;DHT22;54576;52.020;5.536;2022-12-13T02:02:11;-4.50;99.90
67777;DHT22;54576;52.020;5.536;2022-12-13T02:04:47;-4.60;99.90
67777;DHT22;54576;52.020;5.536;2022-12-13T02:07:17;-4.60;99.90
67777;DHT22;54576;52.020;5.536;2022-12-13T02:09:43;-4.60;99.90
67777;DHT22;54576;52.020;5.536;2022-12-13T02:12:10;-4.50;99.90
67777;DHT22;54576;52.020;5.536;2022-12-13T02:14:36;-4.50;99.90
67777;DHT22;54576;52.020;5.536;2022-12-13T02:25:50;-4.50;99.90
67777;DHT22;54576;52.020;5.536;2022-12-13T02:30:50;-4.60;99.90
67777;DHT22;54576;52.020;5.536;2022-12-13T02:33:38;-4.70;99.90
67777;DHT22;54576;52.020;5.536;2022-12-13T02:36:38;-4.80;99.90
67777;DHT22;54576;52.020;5.536;2022-12-13T02:39:13;-4.80;99.90
67777;DHT22;54576;52.020;5.536;2022-12-13T02:41:49;-4.80;99.90
67777;DHT22;54576;52.020;5.536;2022-12-13T02:44:21;-4.80;99.90
67777;DHT22;54576;52.020;5.536;2022-12-13T02:47:04;-4.80;99.90
67777;DHT22;54576;52.020;5.536;2022-12-13T02:49:34;-4.90;99.90
67777;DHT22;54576;52.020;5.536;2022-12-13T02:52:02;-4.90;99.90
67777;DHT22;54576;52.020;5.536;2022-12-13T02:54:29;-4.90;99.90
67777;DHT22;54576;52.020;5.536;2022-12-13T02:56:58;-4.90;99.90
67777;DHT22;54576;52.020;5.536;2022-12-13T02:59:32;-4.90;99.90
67777;DHT22;54576;52.020;5.536;2022-12-13T03:02:15;-4.90;99.90
67777;DHT22;54576;52.020;5.536;2022-12-13T03:05:06;-4.90;99.90
67777;DHT22;54576;52.020;5.536;2022-12-13T03:11:07;-4.80;99.90
67777;DHT22;54576;52.020;5.536;2022-12-13T03:13:56;-4.90;99.90
67777;DHT22;54576;52.020;5.536;2022-12-13T03:16:24;-4.90;99.90
67777;DHT22;54576;52.020;5.536;2022-12-13T03:18:54;-4.80;99.90
67777;DHT22;54576;52.020;5.536;2022-12-13T03:21:22;-4.80;99.90
67777;DHT22;54576;52.020;5.536;2022-12-13T03:23:49;-4.80;99.90
67777;DHT22;54576;52.020;5.536;2022-12-13T03:26:21;-4.80;99.90
67777;DHT22;54576;52.020;5.536;2022-12-13T03:28:48;-4.90;99.90
67777;DHT22;54576;52.020;5.536;2022-12-13T03:31:15;-4.90;99.90
67777;DHT22;54576;52.020;5.536;2022-12-13T03:33:41;-5.00;99.90
67777;DHT22;54576;52.020;5.536;2022-12-13T03:36:07;-5.00;99.90
67777;DHT22;54576;52.020;5.536;2022-12-13T03:38:36;-5.10;99.90
67777;DHT22;54576;52.020;5.536;2022-12-13T03:41:06;-5.10;99.90
67777;DHT22;54576;52.020;5.536;2022-12-13T03:43:36;-5.10;99.90
67777;DHT22;54576;52.020;5.536;2022-12-13T03:46:02;-5.10;99.90
67777;DHT22;54576;52.020;5.536;2022-12-13T03:48:27;-5.20;99.90
67777;DHT22;54576;52.020;5.536;2022-12-13T03:50:53;-5.20;99.90
67777;DHT22;54576;52.020;5.536;2022-12-13T03:53:20;-5.10;99.90
67777;DHT22;54576;52.020;5.536;2022-12-13T03:55:47;-5.10;99.90
67777;DHT22;54576;52.020;5.536;2022-12-13T03:58:13;-5.00;99.90
67777;DHT22;54576;52.020;5.536;2022-12-13T04:00:40;-5.00;99.90
67777;DHT22;54576;52.020;5.536;2022-12-13T04:03:06;-5.00;99.90
67777;DHT22;54576;52.020;5.536;2022-12-13T04:05:32;-5.00;99.90
67777;DHT22;54576;52.020;5.536;2022-12-13T04:07:57;-4.90;99.90
67777;DHT22;54576;52.020;5.536;2022-12-13T04:10:24;-4.90;99.90
67777;DHT22;54576;52.020;5.536;2022-12-13T04:12:51;-4.90;99.90
67777;DHT22;54576;52.020;5.536;2022-12-13T04:15:36;-4.80;99.90
67777;DHT22;54576;52.020;5.536;2022-12-13T04:18:01;-4.80;99.90
67777;DHT22;54576;52.020;5.536;2022-12-13T04:20:27;-4.90;99.90
67777;DHT22;54576;52.020;5.536;2022-12-13T04:22:53;-4.90;99.90
67777;DHT22;54576;52.020;5.536;2022-12-13T04:25:18;-4.90;99.90
67777;DHT22;54576;52.020;5.536;2022-12-13T04:27:45;-5.00;99.90
67777;DHT22;54576;52.020;5.536;2022-12-13T04:30:11;-5.00;99.90
67777;DHT22;54576;52.020;5.536;2022-12-13T04:32:38;-5.00;99.90
67777;DHT22;54576;52.020;5.536;2022-12-13T04:35:06;-5.00;99.90
67777;DHT22;54576;52.020;5.536;2022-12-13T04:37:31;-5.10;99.90
67777;DHT22;54576;52.020;5.536;2022-12-13T04:39:57;-5.10;99.90
67777;DHT22;54576;52.020;5.536;2022-12-13T04:42:24;-5.20;99.90
67777;DHT22;54576;52.020;5.536;2022-12-13T04:44:50;-5.20;99.90
67777;DHT22;54576;52.020;5.536;2022-12-13T04:47:15;-5.20;99.90
67777;DHT22;54576;52.020;5.536;2022-12-13T04:49:41;-5.20;99.90
67777;DHT22;54576;52.020;5.536;2022-12-13T04:52:06;-5.20;99.90
67777;DHT22;54576;52.020;5.536;2022-12-13T04:54:32;-5.10;99.90
67777;DHT22;54576;52.020;5.536;2022-12-13T04:56:58;-5.10;99.90
67777;DHT22;54576;52.020;5.536;2022-12-13T04:59:24;-5.10;99.90
67777;DHT22;54576;52.020;5.536;2022-12-13T05:01:49;-5.10;99.90
67777;DHT22;54576;52.020;5.536;2022-12-13T05:04:18;-5.10;99.90
67777;DHT22;54576;52.020;5.536;2022-12-13T05:06:43;-5.10;99.90
67777;DHT22;54576;52.020;5.536;2022-12-13T05:09:09;-5.10;99.90
67777;DHT22;54576;52.020;5.536;2022-12-13T05:11:34;-5.10;99.90
67777;DHT22;54576;52.020;5.536;2022-12-13T05:14:00;-5.00;99.90
67777;DHT22;54576;52.020;5.536;2022-12-13T05:16:30;-5.00;99.90
67777;DHT22;54576;52.020;5.536;2022-12-13T05:18:58;-5.00;99.90
67777;DHT22;54576;52.020;5.536;2022-12-13T05:21:24;-4.90;99.90
67777;DHT22;54576;52.020;5.536;2022-12-13T05:23:50;-4.80;99.90
67777;DHT22;54576;52.020;5.536;2022-12-13T05:26:15;-4.80;99.90
67777;DHT22;54576;52.020;5.536;2022-12-13T05:28:41;-4.70;99.90
67777;DHT22;54576;52.020;5.536;2022-12-13T05:31:09;-4.70;99.90
67777;DHT22;54576;52.020;5.536;2022-12-13T05:33:36;-4.60;99.90
67777;DHT22;54576;52.020;5.536;2022-12-13T05:36:03;-4.60;99.90
67777;DHT22;54576;52.020;5.536;2022-12-13T05:38:30;-4.60;99.90
67777;DHT22;54576;52.020;5.536;2022-12-13T05:40:56;-4.50;99.90
67777;DHT22;54576;52.020;5.536;2022-12-13T05:43:22;-4.50;99.90
67777;DHT22;54576;52.020;5.536;2022-12-13T05:45:49;-4.50;99.90
67777;DHT22;54576;52.020;5.536;2022-12-13T05:48:15;-4.40;99.90
67777;DHT22;54576;52.020;5.536;2022-12-13T05:50:42;-4.40;99.90
67777;DHT22;54576;52.020;5.536;2022-12-13T05:53:09;-4.40;99.90
67777;DHT22;54576;52.020;5.536;2022-12-13T05:55:36;-4.30;99.90
67777;DHT22;54576;52.020;5.536;2022-12-13T05:58:02;-4.30;99.90
67777;DHT22;54576;52.020;5.536;2022-12-13T06:00:27;-4.30;99.90
67777;DHT22;54576;52.020;5.536;2022-12-13T06:02:54;-4.20;99.90
67777;DHT22;54576;52.020;5.536;2022-12-13T06:05:19;-4.20;99.90
67777;DHT22;54576;52.020;5.536;2022-12-13T06:07:45;-4.10;99.90
67777;DHT22;54576;52.020;5.536;2022-12-13T06:10:11;-4.10;99.90
67777;DHT22;54576;52.020;5.536;2022-12-13T06:12:37;-4.10;99.90
67777;DHT22;54576;52.020;5.536;2022-12-13T06:15:04;-4.10;99.90
67777;DHT22;54576;52.020;5.536;2022-12-13T06:17:34;-4.10;99.90
67777;DHT22;54576;52.020;5.536;2022-12-13T06:20:01;-4.00;99.90
67777;DHT22;54576;52.020;5.536;2022-12-13T06:22:27;-4.00;99.90
67777;DHT22;54576;52.020;5.536;2022-12-13T06:24:52;-4.00;99.90
67777;DHT22;54576;52.020;5.536;2022-12-13T06:27:18;-4.00;99.90
67777;DHT22;54576;52.020;5.536;2022-12-13T06:29:43;-4.00;99.90
67777;DHT22;54576;52.020;5.536;2022-12-13T06:32:09;-4.00;99.90
67777;DHT22;54576;52.020;5.536;2022-12-13T06:34:35;-4.00;99.90
67777;DHT22;54576;52.020;5.536;2022-12-13T06:37:06;-4.00;99.90
67777;DHT22;54576;52.020;5.536;2022-12-13T06:39:32;-3.90;99.90
67777;DHT22;54576;52.020;5.536;2022-12-13T06:41:57;-4.00;99.90
67777;DHT22;54576;52.020;5.536;2022-12-13T06:44:23;-4.00;99.90
67777;DHT22;54576;52.020;5.536;2022-12-13T06:46:49;-4.00;99.90
67777;DHT22;54576;52.020;5.536;2022-12-13T06:49:14;-4.00;99.90
67777;DHT22;54576;52.020;5.536;2022-12-13T06:51:40;-4.00;99.90
67777;DHT22;54576;52.020;5.536;2022-12-13T06:54:05;-4.10;99.90
67777;DHT22;54576;52.020;5.536;2022-12-13T06:56:31;-4.10;99.90
67777;DHT22;54576;52.020;5.536;2022-12-13T06:58:57;-4.20;99.90
67777;DHT22;54576;52.020;5.536;2022-12-13T07:01:23;-4.30;99.90
67777;DHT22;54576;52.020;5.536;2022-12-13T07:03:49;-4.30;99.90
67777;DHT22;54576;52.020;5.536;2022-12-13T07:06:17;-4.40;99.90
67777;DHT22;54576;52.020;5.536;2022-12-13T07:08:46;-4.50;99.90
67777;DHT22;54576;52.020;5.536;2022-12-13T07:11:16;-4.50;99.90
67777;DHT22;54576;52.020;5.536;2022-12-13T07:13:42;-4.50;99.90
67777;DHT22;54576;52.020;5.536;2022-12-13T07:16:09;-4.50;99.90
67777;DHT22;54576;52.020;5.536;2022-12-13T07:18:35;-4.60;99.90
67777;DHT22;54576;52.020;5.536;2022-12-13T07:21:03;-4.50;99.90
67777;DHT22;54576;52.020;5.536;2022-12-13T07:23:29;-4.50;99.90
67777;DHT22;54576;52.020;5.536;2022-12-13T07:25:55;-4.50;99.90
67777;DHT22;54576;52.020;5.536;2022-12-13T07:28:21;-4.50;99.90
67777;DHT22;54576;52.020;5.536;2022-12-13T07:30:47;-4.40;99.90
67777;DHT22;54576;52.020;5.536;2022-12-13T07:33:16;-4.40;99.90
67777;DHT22;54576;52.020;5.536;2022-12-13T07:35:42;-4.40;99.90
67777;DHT22;54576;52.020;5.536;2022-12-13T07:38:09;-4.40;99.90
67777;DHT22;54576;52.020;5.536;2022-12-13T07:40:36;-4.50;99.90
67777;DHT22;54576;52.020;5.536;2022-12-13T07:43:03;-4.50;99.90
67777;DHT22;54576;52.020;5.536;2022-12-13T07:45:29;-4.50;99.90
67777;DHT22;54576;52.020;5.536;2022-12-13T07:47:57;-4.50;99.90
67777;DHT22;54576;52.020;5.536;2022-12-13T07:50:23;-4.60;99.90
67777;DHT22;54576;52.020;5.536;2022-12-13T07:52:49;-4.60;99.90
67777;DHT22;54576;52.020;5.536;2022-12-13T07:55:16;-4.60;99.90
67777;DHT22;54576;52.020;5.536;2022-12-13T07:57:42;-4.70;99.90
67777;DHT22;54576;52.020;5.536;2022-12-13T08:00:09;-4.70;99.90
67777;DHT22;54576;52.020;5.536;2022-12-13T08:02:35;-4.70;99.90
67777;DHT22;54576;52.020;5.536;2022-12-13T08:05:00;-4.70;99.90
67777;DHT22;54576;52.020;5.536;2022-12-13T08:07:26;-4.80;99.90
67777;DHT22;54576;52.020;5.536;2022-12-13T08:09:52;-4.90;99.90
67777;DHT22;54576;52.020;5.536;2022-12-13T08:12:19;-4.90;99.90
67777;DHT22;54576;52.020;5.536;2022-12-13T08:14:45;-5.00;99.90
67777;DHT22;54576;52.020;5.536;2022-12-13T08:17:10;-4.90;99.90
67777;DHT22;54576;52.020;5.536;2022-12-13T08:19:36;-4.90;99.90
67777;DHT22;54576;52.020;5.536;2022-12-13T08:22:01;-4.90;99.90
67777;DHT22;54576;52.020;5.536;2022-12-13T08:24:29;-4.90;99.90
67777;DHT22;54576;52.020;5.536;2022-12-13T08:26:57;-4.90;99.90
67777;DHT22;54576;52.020;5.536;2022-12-13T08:29:25;-4.90;99.90
67777;DHT22;54576;52.020;5.536;2022-12-13T08:31:51;-4.90;99.90
67777;DHT22;54576;52.020;5.536;2022-12-13T08:34:16;-4.90;99.90
67777;DHT22;54576;52.020;5.536;2022-12-13T08:36:42;-4.90;99.90
67777;DHT22;54576;52.020;5.536;2022-12-13T08:39:07;-4.80;99.90
67777;DHT22;54576;52.020;5.536;2022-12-13T08:41:33;-4.80;99.90
67777;DHT22;54576;52.020;5.536;2022-12-13T08:43:58;-4.70;99.90
67777;DHT22;54576;52.020;5.536;2022-12-13T08:46:24;-4.60;99.90
67777;DHT22;54576;52.020;5.536;2022-12-13T08:48:52;-4.60;99.90
67777;DHT22;54576;52.020;5.536;2022-12-13T08:51:18;-4.50;99.90
67777;DHT22;54576;52.020;5.536;2022-12-13T08:53:50;-4.40;99.90
67777;DHT22;54576;52.020;5.536;2022-12-13T08:56:16;-4.30;99.90
67777;DHT22;54576;52.020;5.536;2022-12-13T08:58:43;-4.30;99.90
67777;DHT22;54576;52.020;5.536;2022-12-13T09:01:09;-4.20;99.90
67777;DHT22;54576;52.020;5.536;2022-12-13T09:03:36;-4.10;99.90
67777;DHT22;54576;52.020;5.536;2022-12-13T09:06:10;-4.10;99.90
67777;DHT22;54576;52.020;5.536;2022-12-13T09:08:36;-4.00;99.90
67777;DHT22;54576;52.020;5.536;2022-12-13T09:11:03;-4.00;99.90
67777;DHT22;54576;52.020;5.536;2022-12-13T09:13:32;-3.90;99.90
67777;DHT22;54576;52.020;5.536;2022-12-13T09:15:58;-3.90;99.90
67777;DHT22;54576;52.020;5.536;2022-12-13T09:18:24;-3.80;99.90
67777;DHT22;54576;52.020;5.536;2022-12-13T09:20:50;-3.80;99.90
67777;DHT22;54576;52.020;5.536;2022-12-13T09:23:16;-3.70;99.90
67777;DHT22;54576;52.020;5.536;2022-12-13T09:25:42;-3.60;99.90
67777;DHT22;54576;52.020;5.536;2022-12-13T09:28:07;-3.60;99.90
67777;DHT22;54576;52.020;5.536;2022-12-13T09:30:37;-3.50;99.90
67777;DHT22;54576;52.020;5.536;2022-12-13T09:33:03;-3.50;99.90
67777;DHT22;54576;52.020;5.536;2022-12-13T09:35:31;-3.40;99.90
67777;DHT22;54576;52.020;5.536;2022-12-13T09:37:57;-3.30;99.90
67777;DHT22;54576;52.020;5.536;2022-12-13T09:40:25;-3.30;99.90
67777;DHT22;54576;52.020;5.536;2022-12-13T09:42:54;-3.20;99.90
67777;DHT22;54576;52.020;5.536;2022-12-13T09:45:20;-3.20;99.90
67777;DHT22;54576;52.020;5.536;2022-12-13T09:47:47;-3.10;99.90
67777;DHT22;54576;52.020;5.536;2022-12-13T09:50:18;-3.10;99.90
67777;DHT22;54576;52.020;5.536;2022-12-13T09:52:44;-3.00;99.90
67777;DHT22;54576;52.020;5.536;2022-12-13T09:55:29;-2.90;99.90
67777;DHT22;54576;52.020;5.536;2022-12-13T09:57:57;-2.80;99.90
67777;DHT22;54576;52.020;5.536;2022-12-13T10:00:24;-2.70;99.90
67777;DHT22;54576;52.020;5.536;2022-12-13T10:02:54;-2.60;99.90
67777;DHT22;54576;52.020;5.536;2022-12-13T10:05:33;-2.60;99.90
67777;DHT22;54576;52.020;5.536;2022-12-13T10:10:38;-2.40;99.90
67777;DHT22;54576;52.020;5.536;2022-12-13T10:15:37;-2.40;99.90
67777;DHT22;54576;52.020;5.536;2022-12-13T10:18:07;-2.40;99.90
67777;DHT22;54576;52.020;5.536;2022-12-13T10:20:33;-2.30;99.90
67777;DHT22;54576;52.020;5.536;2022-12-13T10:22:59;-2.30;99.90
67777;DHT22;54576;52.020;5.536;2022-12-13T10:25:47;-2.30;99.90
67777;DHT22;54576;52.020;5.536;2022-12-13T10:28:16;-2.30;99.90
67777;DHT22;54576;52.020;5.536;2022-12-13T10:30:42;-2.20;99.90
67777;DHT22;54576;52.020;5.536;2022-12-13T10:36:14;-2.20;99.90
67777;DHT22;54576;52.020;5.536;2022-12-13T10:38:45;-2.20;99.90
67777;DHT22;54576;52.020;5.536;2022-12-13T10:41:32;-2.10;99.90
67777;DHT22;54576;52.020;5.536;2022-12-13T10:46:38;-2.10;99.90
67777;DHT22;54576;52.020;5.536;2022-12-13T10:49:26;-2.00;99.90
67777;DHT22;54576;52.020;5.536;2022-12-13T10:51:54;-2.00;99.90
67777;DHT22;54576;52.020;5.536;2022-12-13T10:54:29;-1.90;99.90
67777;DHT22;54576;52.020;5.536;2022-12-13T10:56:56;-1.80;99.90
67777;DHT22;54576;52.020;5.536;2022-12-13T10:59:34;-1.80;99.90
67777;DHT22;54576;52.020;5.536;2022-12-13T11:04:45;-1.70;99.90
67777;DHT22;54576;52.020;5.536;2022-12-13T11:09:52;-1.60;99.90
67777;DHT22;54576;52.020;5.536;2022-12-13T11:12:21;-1.50;99.90
67777;DHT22;54576;52.020;5.536;2022-12-13T11:14:56;-1.50;99.90
67777;DHT22;54576;52.020;5.536;2022-12-13T11:17:26;-1.40;99.90
67777;DHT22;54576;52.020;5.536;2022-12-13T11:19:57;-1.30;99.90
67777;DHT22;54576;52.020;5.536;2022-12-13T11:22:32;-1.30;99.90
67777;DHT22;54576;52.020;5.536;2022-12-13T11:25:22;-1.30;99.90
67777;DHT22;54576;52.020;5.536;2022-12-13T11:41:39;-1.10;99.90
67777;DHT22;54576;52.020;5.536;2022-12-13T11:46:51;-1.10;99.90
67777;DHT22;54576;52.020;5.536;2022-12-13T11:49:39;-1.10;99.90
67777;DHT22;54576;52.020;5.536;2022-12-13T11:52:15;-1.00;99.90
67777;DHT22;54576;52.020;5.536;2022-12-13T11:54:58;-1.00;99.90
67777;DHT22;54576;52.020;5.536;2022-12-13T11:57:34;-1.00;99.90
67777;DHT22;54576;52.020;5.536;2022-12-13T12:00:06;-1.00;99.90
67777;DHT22;54576;52.020;5.536;2022-12-13T12:02:44;-1.00;99.90
67777;DHT22;54576;52.020;5.536;2022-12-13T12:05:33;-1.00;99.90
67777;DHT22;54576;52.020;5.536;2022-12-13T12:14:26;-1.00;99.90
67777;DHT22;54576;52.020;5.536;2022-12-13T12:16:58;-1.00;99.90
67777;DHT22;54576;52.020;5.536;2022-12-13T12:19:26;-1.00;99.90
67777;DHT22;54576;52.020;5.536;2022-12-13T12:25:01;-1.00;99.90
67777;DHT22;54576;52.020;5.536;2022-12-13T12:27:43;-1.00;99.90
67777;DHT22;54576;52.020;5.536;2022-12-13T12:35:34;-1.00;99.90
67777;DHT22;54576;52.020;5.536;2022-12-13T12:47:48;-0.90;99.90
67777;DHT22;54576;52.020;5.536;2022-12-13T12:50:43;-0.90;99.90
67777;DHT22;54576;52.020;5.536;2022-12-13T12:58:58;-0.80;99.90
67777;DHT22;54576;52.020;5.536;2022-12-13T13:04:13;-0.80;99.90
67777;DHT22;54576;52.020;5.536;2022-12-13T13:06:44;-0.70;99.90
67777;DHT22;54576;52.020;5.536;2022-12-13T13:09:13;-0.60;99.90
67777;DHT22;54576;52.020;5.536;2022-12-13T13:11:42;-0.60;99.90
67777;DHT22;54576;52.020;5.536;2022-12-13T13:16:52;-0.70;99.90
67777;DHT22;54576;52.020;5.536;2022-12-13T13:21:51;-0.80;99.90
67777;DHT22;54576;52.020;5.536;2022-12-13T13:24:21;-0.80;99.90
67777;DHT22;54576;52.020;5.536;2022-12-13T13:26:52;-0.80;99.90
67777;DHT22;54576;52.020;5.536;2022-12-13T13:40:07;-0.80;99.90
67777;DHT22;54576;52.020;5.536;2022-12-13T13:46:07;-0.90;99.90
67777;DHT22;54576;52.020;5.536;2022-12-13T14:11:18;-0.90;99.90
67777;DHT22;54576;52.020;5.536;2022-12-13T14:27:12;-0.90;99.90
67777;DHT22;54576;52.020;5.536;2022-12-13T14:29:43;-0.90;99.90
67777;DHT22;54576;52.020;5.536;2022-12-13T14:32:21;-0.90;99.90
67777;DHT22;54576;52.020;5.536;2022-12-13T14:34:48;-0.90;99.90
67777;DHT22;54576;52.020;5.536;2022-12-13T14:37:33;-1.00;99.90
67777;DHT22;54576;52.020;5.536;2022-12-13T14:40:01;-1.00;99.90
67777;DHT22;54576;52.020;5.536;2022-12-13T14:42:30;-1.00;99.90
67777;DHT22;54576;52.020;5.536;2022-12-13T14:45:22;-1.00;99.90
67777;DHT22;54576;52.020;5.536;2022-12-13T14:47:53;-1.00;99.90
67777;DHT22;54576;52.020;5.536;2022-12-13T14:50:19;-1.10;99.90
67777;DHT22;54576;52.020;5.536;2022-12-13T14:52:46;-1.10;99.90
67777;DHT22;54576;52.020;5.536;2022-12-13T14:57:54;-1.10;99.90
67777;DHT22;54576;52.020;5.536;2022-12-13T15:00:27;-1.10;99.90
67777;DHT22;54576;52.020;5.536;2022-12-13T15:02:55;-1.10;99.90
67777;DHT22;54576;52.020;5.536;2022-12-13T15:05:34;-1.20;99.90
67777;DHT22;54576;52.020;5.536;2022-12-13T15:08:02;-1.20;99.90
67777;DHT22;54576;52.020;5.536;2022-12-13T15:10:39;-1.20;99.90
67777;DHT22;54576;52.020;5.536;2022-12-13T15:13:05;-1.20;99.90
67777;DHT22;54576;52.020;5.536;2022-12-13T15:15:36;-1.20;99.90
67777;DHT22;54576;52.020;5.536;2022-12-13T15:18:24;-1.20;99.90
67777;DHT22;54576;52.020;5.536;2022-12-13T15:20:52;-1.20;99.90
67777;DHT22;54576;52.020;5.536;2022-12-13T15:23:35;-1.30;99.90
67777;DHT22;54576;52.020;5.536;2022-12-13T15:26:07;-1.20;99.90
67777;DHT22;54576;52.020;5.536;2022-12-13T15:28:36;-1.30;99.90
67777;DHT22;54576;52.020;5.536;2022-12-13T15:31:03;-1.30;99.90
67777;DHT22;54576;52.020;5.536;2022-12-13T15:33:30;-1.30;99.90
67777;DHT22;54576;52.020;5.536;2022-12-13T15:38:49;-1.30;99.90
67777;DHT22;54576;52.020;5.536;2022-12-13T15:41:28;-1.30;99.90
67777;DHT22;54576;52.020;5.536;2022-12-13T15:44:01;-1.30;99.90
67777;DHT22;54576;52.020;5.536;2022-12-13T15:46:30;-1.30;99.90
67777;DHT22;54576;52.020;5.536;2022-12-13T15:48:58;-1.40;99.90
67777;DHT22;54576;52.020;5.536;2022-12-13T15:51:24;-1.40;99.90
67777;DHT22;54576;52.020;5.536;2022-12-13T15:56:54;-1.40;99.90
67777;DHT22;54576;52.020;5.536;2022-12-13T15:59:25;-1.40;99.90
67777;DHT22;54576;52.020;5.536;2022-12-13T16:01:52;-1.40;99.90
67777;DHT22;54576;52.020;5.536;2022-12-13T16:04:29;-1.40;99.90
67777;DHT22;54576;52.020;5.536;2022-12-13T16:06:55;-1.40;99.90
67777;DHT22;54576;52.020;5.536;2022-12-13T16:09:23;-1.40;99.90
67777;DHT22;54576;52.020;5.536;2022-12-13T16:12:01;-1.40;99.90
67777;DHT22;54576;52.020;5.536;2022-12-13T16:17:18;-1.50;99.90
67777;DHT22;54576;52.020;5.536;2022-12-13T16:19:46;-1.50;99.90
67777;DHT22;54576;52.020;5.536;2022-12-13T16:22:12;-1.50;99.90
67777;DHT22;54576;52.020;5.536;2022-12-13T16:24:38;-1.50;99.90
67777;DHT22;54576;52.020;5.536;2022-12-13T16:27:03;-1.40;99.90
67777;DHT22;54576;52.020;5.536;2022-12-13T16:29:29;-1.50;99.90
67777;DHT22;54576;52.020;5.536;2022-12-13T16:31:55;-1.50;99.90
67777;DHT22;54576;52.020;5.536;2022-12-13T16:34:23;-1.50;99.90
67777;DHT22;54576;52.020;5.536;2022-12-13T16:36:49;-1.50;99.90
67777;DHT22;54576;52.020;5.536;2022-12-13T16:39:15;-1.50;99.90
67777;DHT22;54576;52.020;5.536;2022-12-13T16:41:43;-1.50;99.90
67777;DHT22;54576;52.020;5.536;2022-12-13T16:44:36;-1.50;99.90
67777;DHT22;54576;52.020;5.536;2022-12-13T16:47:07;-1.50;99.90
67777;DHT22;54576;52.020;5.536;2022-12-13T16:49:33;-1.60;99.90
67777;DHT22;54576;52.020;5.536;2022-12-13T16:51:59;-1.60;99.90
67777;DHT22;54576;52.020;5.536;2022-12-13T16:54:25;-1.60;99.90
67777;DHT22;54576;52.020;5.536;2022-12-13T16:56:52;-1.60;99.90
67777;DHT22;54576;52.020;5.536;2022-12-13T16:59:20;-1.60;99.90
67777;DHT22;54576;52.020;5.536;2022-12-13T17:01:47;-1.60;99.90
67777;DHT22;54576;52.020;5.536;2022-12-13T17:04:21;-1.60;99.90
67777;DHT22;54576;52.020;5.536;2022-12-13T17:06:48;-1.60;99.90
67777;DHT22;54576;52.020;5.536;2022-12-13T17:09:14;-1.70;99.90
67777;DHT22;54576;52.020;5.536;2022-12-13T17:11:40;-1.70;99.90
67777;DHT22;54576;52.020;5.536;2022-12-13T17:14:05;-1.70;99.90
67777;DHT22;54576;52.020;5.536;2022-12-13T17:16:31;-1.70;99.90
67777;DHT22;54576;52.020;5.536;2022-12-13T17:18:57;-1.70;99.90
67777;DHT22;54576;52.020;5.536;2022-12-13T17:21:26;-1.70;99.90
67777;DHT22;54576;52.020;5.536;2022-12-13T17:23:59;-1.70;99.90
67777;DHT22;54576;52.020;5.536;2022-12-13T17:26:26;-1.80;99.90
67777;DHT22;54576;52.020;5.536;2022-12-13T17:28:52;-1.70;99.90
67777;DHT22;54576;52.020;5.536;2022-12-13T17:31:19;-1.70;99.90
67777;DHT22;54576;52.020;5.536;2022-12-13T17:33:45;-1.70;99.90
67777;DHT22;54576;52.020;5.536;2022-12-13T17:36:12;-1.80;99.90
67777;DHT22;54576;52.020;5.536;2022-12-13T17:38:46;-1.80;99.90
67777;DHT22;54576;52.020;5.536;2022-12-13T17:41:13;-1.70;99.90
67777;DHT22;54576;52.020;5.536;2022-12-13T17:43:39;-1.70;99.90
67777;DHT22;54576;52.020;5.536;2022-12-13T17:46:14;-1.70;99.90
67777;DHT22;54576;52.020;5.536;2022-12-13T17:48:41;-1.70;99.90
67777;DHT22;54576;52.020;5.536;2022-12-13T17:51:08;-1.70;99.90
67777;DHT22;54576;52.020;5.536;2022-12-13T17:53:34;-1.70;99.90
67777;DHT22;54576;52.020;5.536;2022-12-13T17:56:05;-1.70;99.90
67777;DHT22;54576;52.020;5.536;2022-12-13T17:58:31;-1.70;99.90
67777;DHT22;54576;52.020;5.536;2022-12-13T18:00:58;-1.70;99.90
67777;DHT22;54576;52.020;5.536;2022-12-13T18:03:24;-1.70;99.90
67777;DHT22;54576;52.020;5.536;2022-12-13T18:05:57;-1.70;99.90
67777;DHT22;54576;52.020;5.536;2022-12-13T18:08:24;-1.70;99.90
67777;DHT22;54576;52.020;5.536;2022-12-13T18:10:54;-1.70;99.90